Time;durP1;ratioP1;P1;durP2;ratioP2;P2;SDS_P1;SDS_P2;PMS_P1;PMS_P2;Temp;Humidity;BMP_temperature;BMP_pressure;BME280_temperature;BME280_humidity;BME280_pressure;Samples;Min_cycle;Max_cycle;Signal;HPM_P1;HPM_P2
2021/12/17 00:07:00;;;;;;;26.33;15.40;;;4.40;99.90;;;;;;4960938;28;20264;-78
2021/12/17 00:09:26;;;;;;;31.08;15.25;;;4.40;99.90;;;;;;4959999;28;20094;-79
2021/12/17 00:11:52;;;;;;;24.75;14.02;;;4.30;99.90;;;;;;4971695;28;20061;-80
2021/12/17 00:14:26;;;;;;;27.90;15.27;;;4.30;99.90;;;;;;4960232;29;20389;-80
2021/12/17 00:16:54;;;;;;;24.80;15.05;;;4.40;99.90;;;;;;4973805;28;20066;-78
2021/12/17 00:19:40;;;;;;;25.20;13.88;;;4.30;99.90;;;;;;4980624;28;20041;-78
2021/12/17 00:49:59;;;;;;;20.63;11.30;;;4.50;99.90;;;;;;4960707;29;20034;-80
2021/12/17 00:52:29;;;;;;;22.33;12.80;;;4.60;99.90;;;;;;4959151;28;20044;-81
2021/12/17 00:54:55;;;;;;;23.20;12.68;;;4.60;99.90;;;;;;4961149;28;20252;-79
2021/12/17 00:57:23;;;;;;;23.52;12.75;;;4.60;99.90;;;;;;4962704;28;20065;-78
2021/12/17 00:59:53;;;;;;;18.52;12.18;;;4.70;99.90;;;;;;4962376;29;20027;-79
2021/12/17 01:02:32;;;;;;;20.55;12.23;;;4.70;99.90;;;;;;4962054;28;20047;-78
2021/12/17 01:05:03;;;;;;;23.10;12.65;;;4.60;99.90;;;;;;4962115;28;20061;-79
2021/12/17 01:07:33;;;;;;;23.63;13.13;;;4.70;99.90;;;;;;4962552;28;20030;-80
2021/12/17 01:10:03;;;;;;;22.77;12.80;;;4.60;99.90;;;;;;4959099;28;20032;-80
2021/12/17 01:12:36;;;;;;;22.77;13.10;;;4.50;99.90;;;;;;4943637;28;20227;-78
2021/12/17 01:15:21;;;;;;;22.13;12.70;;;4.60;99.90;;;;;;4944419;28;20043;-78
2021/12/17 01:18:13;;;;;;;23.83;13.27;;;4.60;99.90;;;;;;4943593;28;20103;-78
2021/12/17 01:21:08;;;;;;;21.60;12.50;;;4.60;99.90;;;;;;4957966;28;20187;-78
2021/12/17 01:35:45;;;;;;;23.45;12.90;;;4.80;99.90;;;;;;4974981;28;20028;-79
2021/12/17 01:41:45;;;;;;;19.57;12.03;;;4.90;99.90;;;;;;4994612;28;20213;-78
2021/12/17 01:44:10;;;;;;;20.35;11.90;;;4.90;99.90;;;;;;4978992;28;20023;-78
2021/12/17 01:46:39;;;;;;;18.63;11.43;;;4.80;99.90;;;;;;4994703;28;20039;-77
2021/12/17 02:00:12;;;;;;;22.02;12.23;;;4.90;99.90;;;;;;4993252;28;20027;-78
2021/12/17 02:02:47;;;;;;;20.92;11.90;;;4.90;99.90;;;;;;4938276;28;20039;-78
2021/12/17 02:05:16;;;;;;;21.52;11.98;;;4.90;99.90;;;;;;4962333;28;20238;-78
2021/12/17 02:07:46;;;;;;;23.20;13.20;;;4.80;99.90;;;;;;4962249;28;20240;-80
2021/12/17 02:31:35;;;;;;;21.33;12.70;;;4.90;99.90;;;;;;4976293;28;20027;-77
2021/12/17 02:34:21;;;;;;;20.05;11.95;;;4.90;99.90;;;;;;4944715;28;20066;-78
2021/12/17 02:36:48;;;;;;;18.50;12.18;;;4.90;99.90;;;;;;4942325;28;20310;-79
2021/12/17 02:47:18;;;;;;;19.95;11.60;;;5.00;99.90;;;;;;4952202;29;20027;-79
2021/12/17 02:49:47;;;;;;;21.55;12.00;;;5.00;99.90;;;;;;4977683;28;20214;-79
2021/12/17 02:52:16;;;;;;;19.97;11.03;;;5.00;99.90;;;;;;4976754;28;20086;-79
2021/12/17 02:54:42;;;;;;;22.80;12.85;;;5.00;99.90;;;;;;4957568;29;20450;-78
2021/12/17 02:57:11;;;;;;;20.95;12.35;;;5.00;99.90;;;;;;4945617;28;20040;-80
2021/12/17 02:59:38;;;;;;;19.90;11.75;;;5.00;99.90;;;;;;4945892;28;20024;-79
2021/12/17 03:02:07;;;;;;;19.77;12.05;;;4.90;99.90;;;;;;4945383;28;20032;-78
2021/12/17 03:04:39;;;;;;;21.00;12.13;;;4.90;99.90;;;;;;4962581;29;20023;-79
2021/12/17 03:07:06;;;;;;;19.05;11.20;;;5.00;99.90;;;;;;4944900;29;20031;-80
2021/12/17 03:09:57;;;;;;;18.58;10.93;;;5.00;99.90;;;;;;4962209;29;20055;-80
2021/12/17 03:12:41;;;;;;;19.20;10.82;;;5.10;99.90;;;;;;4942588;29;20058;-79
2021/12/17 03:15:23;;;;;;;18.52;10.85;;;5.00;99.90;;;;;;4942695;29;20215;-79
2021/12/17 03:25:45;;;;;;;18.90;11.38;;;5.00;99.90;;;;;;4960898;28;20245;-80
2021/12/17 03:28:11;;;;;;;18.70;11.30;;;5.10;99.90;;;;;;4944680;29;20306;-79
2021/12/17 03:30:36;;;;;;;20.92;11.30;;;5.10;99.90;;;;;;4977258;28;20341;-78
2021/12/17 03:33:03;;;;;;;18.58;11.15;;;5.00;99.90;;;;;;4976792;28;20062;-78
2021/12/17 03:35:29;;;;;;;18.50;11.65;;;5.00;99.90;;;;;;4945453;28;20035;-79
2021/12/17 03:37:55;;;;;;;18.02;11.38;;;5.00;99.90;;;;;;4960624;28;20036;-79
2021/12/17 03:40:21;;;;;;;22.73;11.75;;;5.00;99.90;;;;;;4945373;28;20352;-79
2021/12/17 03:42:50;;;;;;;17.60;11.95;;;5.00;99.90;;;;;;4959970;28;20034;-79
2021/12/17 03:45:19;;;;;;;21.17;11.85;;;5.00;99.90;;;;;;4943929;28;20030;-79
2021/12/17 03:47:55;;;;;;;19.83;11.85;;;5.00;99.90;;;;;;4955694;28;20033;-78
2021/12/17 03:50:23;;;;;;;22.67;13.45;;;5.00;99.90;;;;;;4944779;28;20031;-80
2021/12/17 03:52:49;;;;;;;19.95;12.48;;;5.00;99.90;;;;;;4952086;28;20031;-78
2021/12/17 03:55:16;;;;;;;19.83;12.35;;;5.00;99.90;;;;;;4976005;28;20047;-78
2021/12/17 03:57:47;;;;;;;21.30;12.30;;;5.00;99.90;;;;;;4944679;28;20027;-77
2021/12/17 04:00:14;;;;;;;19.75;13.25;;;5.00;99.90;;;;;;4943750;28;20040;-78
2021/12/17 04:02:53;;;;;;;21.05;12.93;;;5.10;99.90;;;;;;4960756;28;20032;-77
2021/12/17 04:05:33;;;;;;;20.48;11.85;;;5.00;99.90;;;;;;4964630;28;20026;-79
2021/12/17 04:08:18;;;;;;;20.60;12.55;;;5.00;99.90;;;;;;4961825;29;20046;-78
2021/12/17 04:10:53;;;;;;;22.08;13.25;;;5.10;99.90;;;;;;4952122;29;20051;-78
2021/12/17 04:16:02;;;;;;;24.25;14.15;;;5.10;99.90;;;;;;4954456;28;20036;-80
2021/12/17 04:18:28;;;;;;;20.60;12.70;;;5.10;99.90;;;;;;4940067;28;20032;-80
2021/12/17 04:20:54;;;;;;;23.58;14.07;;;5.20;99.90;;;;;;4941529;28;20341;-79
2021/12/17 04:23:22;;;;;;;21.30;12.65;;;5.10;99.90;;;;;;4923954;28;20028;-81
2021/12/17 04:25:51;;;;;;;22.05;13.98;;;5.10;99.90;;;;;;4922599;29;20032;-78
2021/12/17 04:28:18;;;;;;;22.55;13.18;;;5.10;99.90;;;;;;4921902;29;20206;-78
2021/12/17 04:30:45;;;;;;;22.58;13.32;;;5.10;99.90;;;;;;4957661;28;20039;-79
2021/12/17 04:33:13;;;;;;;22.63;13.73;;;5.10;99.90;;;;;;4925260;28;20278;-78
2021/12/17 04:35:41;;;;;;;23.27;13.60;;;5.10;99.90;;;;;;4927872;28;20230;-79
2021/12/17 04:38:08;;;;;;;22.45;13.48;;;5.10;99.90;;;;;;4944117;29;20318;-79
2021/12/17 04:40:42;;;;;;;22.20;13.40;;;5.10;99.90;;;;;;4960454;28;20036;-78
2021/12/17 04:46:29;;;;;;;24.30;14.25;;;5.10;99.90;;;;;;4999326;28;20042;-79
2021/12/17 04:59:45;;;;;;;28.35;15.30;;;5.10;99.90;;;;;;4888211;28;20033;-78
2021/12/17 05:02:11;;;;;;;27.83;14.82;;;5.00;99.90;;;;;;4871180;29;20045;-79
2021/12/17 05:04:48;;;;;;;25.08;14.98;;;5.00;99.90;;;;;;4886702;28;20081;-78
2021/12/17 05:07:16;;;;;;;25.10;13.77;;;5.00;99.90;;;;;;4901936;28;20041;-78
2021/12/17 05:10:02;;;;;;;20.67;13.18;;;5.00;99.90;;;;;;4878859;29;20028;-79
2021/12/17 05:20:55;;;;;;;23.08;14.00;;;5.20;99.90;;;;;;4960223;29;20297;-79
2021/12/17 05:23:27;;;;;;;21.77;13.15;;;5.20;99.90;;;;;;4975929;28;20031;-78
2021/12/17 05:25:53;;;;;;;20.50;13.23;;;5.20;99.90;;;;;;4952585;29;20035;-77
2021/12/17 05:28:22;;;;;;;23.30;15.02;;;5.30;99.90;;;;;;4954345;29;20102;-78
2021/12/17 05:30:48;;;;;;;23.73;14.20;;;5.30;99.90;;;;;;4981220;28;20073;-78
2021/12/17 05:33:16;;;;;;;21.90;13.52;;;5.30;99.90;;;;;;4943815;29;20039;-78
2021/12/17 05:35:42;;;;;;;24.33;13.88;;;5.30;99.90;;;;;;4945328;29;20191;-78
2021/12/17 05:38:10;;;;;;;22.75;13.90;;;5.20;99.90;;;;;;4962931;29;20047;-80
2021/12/17 05:40:37;;;;;;;23.58;14.55;;;5.20;99.90;;;;;;4944993;29;20058;-78
2021/12/17 05:43:06;;;;;;;21.58;13.18;;;5.30;99.90;;;;;;4975113;28;20030;-80
2021/12/17 05:48:07;;;;;;;21.25;12.63;;;5.30;99.90;;;;;;4942708;29;20050;-78
2021/12/17 05:50:38;;;;;;;21.42;13.10;;;5.30;99.90;;;;;;4942958;29;20031;-78
2021/12/17 05:53:05;;;;;;;24.33;14.30;;;5.30;99.90;;;;;;4942483;29;20059;-78
2021/12/17 05:55:32;;;;;;;21.95;13.50;;;5.30;99.90;;;;;;4942909;29;20031;-79
2021/12/17 05:57:58;;;;;;;24.67;15.05;;;5.30;99.90;;;;;;4943124;29;20024;-78
2021/12/17 06:00:25;;;;;;;27.30;14.77;;;5.30;99.90;;;;;;4941871;29;20031;-77
2021/12/17 06:02:51;;;;;;;24.48;13.35;;;5.30;99.90;;;;;;4950406;28;20028;-79
2021/12/17 06:05:34;;;;;;;24.17;13.30;;;5.30;99.90;;;;;;4928141;28;20041;-80
2021/12/17 06:08:01;;;;;;;20.02;12.38;;;5.30;99.90;;;;;;4978756;28;20031;-79
2021/12/17 06:10:27;;;;;;;23.27;14.38;;;5.40;99.90;;;;;;4957885;29;20055;-79
2021/12/17 06:12:53;;;;;;;22.75;13.77;;;5.40;99.90;;;;;;4958934;29;20273;-78
2021/12/17 06:15:21;;;;;;;26.63;15.40;;;5.40;99.90;;;;;;4974080;28;20032;-79
2021/12/17 06:17:47;;;;;;;25.50;15.35;;;5.40;99.90;;;;;;4942949;29;20154;-78
2021/12/17 06:20:16;;;;;;;24.17;14.90;;;5.40;99.90;;;;;;4951597;28;20047;-78
2021/12/17 06:22:45;;;;;;;25.77;14.27;;;5.30;99.90;;;;;;4958845;29;20032;-78
2021/12/17 06:25:11;;;;;;;24.02;14.30;;;5.30;99.90;;;;;;4974599;28;20031;-78
2021/12/17 06:27:38;;;;;;;24.42;14.07;;;5.40;99.90;;;;;;4974742;28;20019;-79
2021/12/17 06:30:06;;;;;;;26.02;14.25;;;5.40;99.90;;;;;;4973733;28;20043;-78
2021/12/17 06:32:32;;;;;;;24.90;13.48;;;5.40;99.90;;;;;;4944097;29;20024;-79
2021/12/17 06:34:58;;;;;;;21.77;13.30;;;5.50;99.90;;;;;;4966952;28;20069;-79
2021/12/17 06:37:24;;;;;;;21.70;13.65;;;5.40;99.90;;;;;;4973442;28;20027;-78
2021/12/17 06:39:50;;;;;;;25.58;13.50;;;5.50;99.90;;;;;;4942544;29;20020;-79
2021/12/17 06:42:17;;;;;;;23.27;13.43;;;5.40;99.90;;;;;;4940785;29;20275;-76
2021/12/17 06:44:45;;;;;;;23.60;13.00;;;5.50;99.90;;;;;;4952776;29;20039;-77
2021/12/17 06:49:57;;;;;;;24.27;13.45;;;5.50;99.90;;;;;;4974254;28;20328;-76
2021/12/17 06:56:43;;;;;;;20.92;12.82;;;5.50;99.90;;;;;;4942152;29;20061;-77
2021/12/17 07:33:34;;;;;;;22.77;12.23;;;5.60;99.90;;;;;;4995914;28;20245;-80
2021/12/17 07:36:22;;;;;;;22.77;11.90;;;5.60;99.90;;;;;;4960897;28;20035;-80
2021/12/17 07:38:49;;;;;;;22.95;12.20;;;5.60;99.90;;;;;;4971847;28;20180;-79
2021/12/17 07:41:45;;;;;;;20.83;12.15;;;5.70;99.90;;;;;;4954636;28;20094;-80
2021/12/17 07:44:30;;;;;;;16.48;10.48;;;5.70;99.90;;;;;;4991067;28;20035;-78
2021/12/17 07:47:15;;;;;;;18.17;10.35;;;5.60;99.90;;;;;;4940398;28;20036;-78
2021/12/17 07:49:46;;;;;;;17.13;9.73;;;5.70;99.90;;;;;;4941130;29;20032;-77
2021/12/17 07:52:12;;;;;;;18.85;10.20;;;5.60;99.90;;;;;;4955681;28;20425;-78
2021/12/17 07:54:38;;;;;;;17.83;10.32;;;5.60;99.90;;;;;;4941900;29;20028;-77
2021/12/17 07:57:04;;;;;;;17.52;9.68;;;5.60;99.90;;;;;;4979238;28;20312;-77
2021/12/17 07:59:33;;;;;;;18.73;10.02;;;5.60;99.90;;;;;;4992712;28;20037;-78
2021/12/17 08:01:59;;;;;;;17.90;10.43;;;5.60;99.90;;;;;;4961570;28;20044;-76
2021/12/17 08:04:30;;;;;;;16.98;9.27;;;5.60;99.90;;;;;;4974758;28;20031;-77
2021/12/17 08:07:04;;;;;;;15.63;9.18;;;5.70;99.90;;;;;;4958005;28;20035;-76
2021/12/17 08:09:35;;;;;;;15.80;8.55;;;5.70;99.90;;;;;;4959120;29;20022;-77
2021/12/17 08:12:05;;;;;;;15.93;8.60;;;5.70;99.90;;;;;;4960634;29;20085;-78
2021/12/17 08:14:56;;;;;;;14.15;8.50;;;5.80;99.90;;;;;;4975358;28;20047;-78
2021/12/17 08:25:41;;;;;;;15.00;7.72;;;5.80;99.90;;;;;;4980003;28;20051;-79
2021/12/17 08:28:12;;;;;;;13.00;7.00;;;5.80;99.90;;;;;;4951237;29;20110;-78
2021/12/17 08:30:40;;;;;;;15.32;6.70;;;5.80;99.90;;;;;;4983370;28;20046;-78
2021/12/17 08:33:21;;;;;;;9.60;6.03;;;5.80;99.90;;;;;;4982556;28;20051;-78
2021/12/17 08:35:49;;;;;;;10.75;5.70;;;5.90;99.90;;;;;;4992304;28;20150;-78
2021/12/17 08:38:21;;;;;;;9.52;5.68;;;5.80;99.90;;;;;;4992368;28;20107;-79
2021/12/17 08:40:49;;;;;;;9.88;6.40;;;5.90;99.90;;;;;;4965296;29;20050;-77
2021/12/17 08:43:16;;;;;;;;;;;5.90;99.90;;;;;;5042454;28;20104;-77
2021/12/17 08:45:46;;;;;;;12.38;6.10;;;5.90;99.90;;;;;;5065342;28;19909;-76
2021/12/17 08:48:31;;;;;;;16.58;7.85;;;5.90;99.90;;;;;;5061523;28;20044;-79
2021/12/17 08:51:23;;;;;;;15.75;7.38;;;5.90;99.90;;;;;;4982637;28;20043;-79
2021/12/17 08:53:49;;;;;;;15.75;7.43;;;5.90;99.90;;;;;;4959697;28;20043;-80
2021/12/17 08:56:20;;;;;;;14.70;7.63;;;5.90;99.90;;;;;;4976419;28;20206;-77
2021/12/17 08:58:50;;;;;;;;;;;5.90;99.90;;;;;;5058513;28;20051;-77
2021/12/17 09:01:16;;;;;;;12.93;7.03;;;5.90;99.90;;;;;;5092228;28;20271;-79
2021/12/17 09:03:47;;;;;;;11.68;6.20;;;6.00;99.90;;;;;;5042808;28;20045;-77
2021/12/17 09:06:39;;;;;;;8.45;5.45;;;5.90;99.90;;;;;;5040357;28;20025;-77
2021/12/17 09:09:07;;;;;;;10.27;5.43;;;6.00;99.90;;;;;;5041773;28;20099;-77
2021/12/17 09:11:34;;;;;;;7.85;5.43;;;6.00;99.90;;;;;;5054983;28;20013;-78
2021/12/17 09:14:08;;;;;;;10.45;5.57;;;6.10;99.90;;;;;;5051728;28;20045;-76
2021/12/17 09:16:47;;;;;;;9.07;5.30;;;6.10;99.90;;;;;;5044918;28;20218;-77
2021/12/17 09:19:14;;;;;;;;;;;6.20;99.90;;;;;;5093345;28;20033;-76
2021/12/17 09:21:48;;;;;;;9.63;5.68;;;6.20;99.90;;;;;;5077334;28;19901;-77
2021/12/17 09:24:19;;;;;;;9.27;5.60;;;6.20;99.90;;;;;;5045918;28;20269;-78
2021/12/17 09:27:18;;;;;;;8.95;5.55;;;6.30;99.90;;;;;;5059004;28;20029;-78
2021/12/17 09:30:18;;;;;;;7.97;5.13;;;6.40;99.90;;;;;;5052657;28;20040;-76
2021/12/17 09:32:44;;;;;;;7.97;5.05;;;6.40;99.90;;;;;;5063758;28;20078;-78
2021/12/17 09:35:11;;;;;;;9.27;5.65;;;6.50;99.90;;;;;;5064891;28;20071;-76
2021/12/17 09:37:38;;;;;;;10.60;5.40;;;6.50;99.90;;;;;;5089028;28;20020;-79
2021/12/17 09:40:07;;;;;;;10.02;5.88;;;6.60;99.90;;;;;;5064680;28;20187;-78
2021/12/17 09:42:34;;;;;;;7.90;4.85;;;6.60;99.90;;;;;;5064155;28;20219;-77
2021/12/17 09:44:59;;;;;;;8.25;5.60;;;6.60;99.90;;;;;;5064852;28;20029;-77
2021/12/17 09:47:25;;;;;;;8.20;5.40;;;6.70;99.90;;;;;;5062054;28;20104;-78
2021/12/17 09:49:56;;;;;;;8.60;5.80;;;6.70;99.90;;;;;;5063067;28;20041;-77
2021/12/17 09:52:24;;;;;;;9.60;5.68;;;6.70;99.90;;;;;;5063462;28;20304;-77
2021/12/17 09:54:50;;;;;;;7.88;5.53;;;6.90;99.90;;;;;;5062938;28;20043;-77
2021/12/17 09:57:17;;;;;;;9.02;5.68;;;6.90;99.90;;;;;;5045989;28;20020;-79
2021/12/17 09:59:43;;;;;;;7.30;5.18;;;6.90;99.90;;;;;;5061255;28;20079;-77
2021/12/17 10:02:09;;;;;;;8.98;5.55;;;7.00;99.90;;;;;;5082841;28;20112;-80
2021/12/17 10:04:36;;;;;;;7.95;5.32;;;7.10;99.90;;;;;;5056836;28;20078;-79
2021/12/17 10:07:23;;;;;;;9.10;5.60;;;7.20;99.90;;;;;;5061055;28;20025;-78
2021/12/17 10:09:54;;;;;;;9.88;6.00;;;7.30;99.90;;;;;;5062081;28;20231;-83
2021/12/17 10:12:28;;;;;;;9.45;5.85;;;7.30;99.90;;;;;;5046939;28;20093;-75
2021/12/17 10:15:19;;;;;;;8.98;5.85;;;7.40;99.90;;;;;;5044137;28;20065;-79
2021/12/17 10:17:58;;;;;;;10.13;6.05;;;7.50;99.90;;;;;;5043659;28;20049;-78
2021/12/17 10:20:26;;;;;;;12.43;6.47;;;7.60;99.90;;;;;;5043885;28;20036;-77
2021/12/17 10:23:12;;;;;;;11.65;7.05;;;7.60;99.90;;;;;;5054497;28;20173;-77
2021/12/17 10:25:44;;;;;;;10.98;6.60;;;7.80;99.90;;;;;;5056919;28;20033;-79
2021/12/17 10:28:11;;;;;;;10.13;6.82;;;7.90;99.90;;;;;;5079003;28;20029;-78
2021/12/17 10:30:39;;;;;;;9.75;5.90;;;8.10;99.90;;;;;;5056229;28;20353;-79
2021/12/17 10:33:09;;;;;;;9.98;6.13;;;8.20;99.90;;;;;;5063797;28;20049;-78
2021/12/17 10:35:40;;;;;;;9.40;6.38;;;8.50;99.90;;;;;;5062147;28;20040;-78
2021/12/17 10:38:12;;;;;;;8.77;5.82;;;8.80;99.90;;;;;;5063888;28;20070;-79
2021/12/17 10:41:08;;;;;;;9.50;5.00;;;9.30;99.90;;;;;;5063431;28;20031;-78
2021/12/17 10:43:38;;;;;;;9.38;5.72;;;9.80;99.90;;;;;;5061654;28;20094;-79
2021/12/17 10:46:20;;;;;;;9.13;5.70;;;10.50;99.90;;;;;;5057741;28;20041;-79
2021/12/17 10:49:02;;;;;;;8.35;5.93;;;10.80;99.90;;;;;;5058436;28;20212;-80
2021/12/17 10:54:07;;;;;;;11.82;6.05;;;11.50;99.90;;;;;;5051088;28;20036;-77
2021/12/17 10:56:35;;;;;;;10.88;6.05;;;11.80;99.90;;;;;;5061961;28;20045;-78
2021/12/17 10:59:09;;;;;;;9.02;6.00;;;12.20;99.90;;;;;;5063415;28;20037;-77
2021/12/17 11:01:45;;;;;;;10.48;5.72;;;12.40;99.90;;;;;;5094918;28;20107;-78
2021/12/17 11:04:24;;;;;;;9.18;5.68;;;12.10;99.90;;;;;;5058675;28;20219;-77
2021/12/17 11:06:54;;;;;;;13.80;8.70;;;12.30;99.90;;;;;;5043213;28;20079;-78
2021/12/17 11:09:38;;;;;;;7.63;5.47;;;12.50;99.90;;;;;;5042713;28;20033;-78
2021/12/17 11:12:12;;;;;;;14.60;8.80;;;13.00;99.90;;;;;;5073860;28;20334;-77
2021/12/17 11:14:38;;;;;;;12.20;8.27;;;13.10;99.90;;;;;;5061206;28;20303;-78
2021/12/17 11:17:04;;;;;;;11.32;7.25;;;13.50;99.90;;;;;;5094006;28;20402;-78
2021/12/17 11:19:31;;;;;;;9.80;5.63;;;14.00;99.90;;;;;;5061202;28;20027;-77
2021/12/17 11:21:57;;;;;;;9.07;6.65;;;14.40;99.90;;;;;;5062943;28;20299;-79
2021/12/17 11:24:23;;;;;;;8.77;5.93;;;14.50;99.90;;;;;;5057311;28;20160;-79
2021/12/17 11:26:50;;;;;;;8.23;6.00;;;14.30;99.90;;;;;;5061263;28;20094;-76
2021/12/17 11:29:19;;;;;;;9.25;6.93;;;13.50;99.90;;;;;;5094783;28;20027;-77
2021/12/17 11:31:47;;;;;;;8.50;5.68;;;12.90;99.90;;;;;;5043101;28;20341;-77
2021/12/17 11:34:14;;;;;;;8.80;6.50;;;13.20;99.90;;;;;;5042554;28;20099;-76
2021/12/17 11:36:39;;;;;;;7.47;5.50;;;14.20;99.90;;;;;;5045946;28;20056;-78
2021/12/17 11:39:16;;;;;;;6.72;4.93;;;15.60;99.90;;;;;;5061171;28;20032;-78
2021/12/17 11:41:51;;;;;;;7.72;4.65;;;16.50;98.40;;;;;;5062375;28;20036;-78
2021/12/17 11:44:20;;;;;;;7.18;5.30;;;17.10;97.50;;;;;;5062538;28;20103;-79
2021/12/17 11:46:59;;;;;;;;;;;17.40;96.30;;;;;;5061259;28;20235;-77
2021/12/17 11:49:26;;;;;;;7.93;5.75;;;17.80;95.70;;;;;;5060482;28;19912;-80
2021/12/17 11:51:55;;;;;;;6.70;4.93;;;18.50;95.20;;;;;;5061737;28;20059;-78
2021/12/17 11:54:29;;;;;;;7.35;4.90;;;19.20;94.10;;;;;;5061581;28;20032;-77
2021/12/17 11:57:05;;;;;;;6.38;4.88;;;19.00;93.40;;;;;;5062531;28;20167;-79
2021/12/17 11:59:38;;;;;;;6.90;4.78;;;18.90;92.90;;;;;;5061277;28;20025;-76
2021/12/17 12:02:22;;;;;;;7.05;4.78;;;19.00;93.10;;;;;;5068315;28;20067;-75
2021/12/17 12:05:04;;;;;;;6.55;4.82;;;19.50;93.10;;;;;;5054927;28;20032;-77
2021/12/17 12:07:29;;;;;;;5.60;4.32;;;19.40;92.40;;;;;;5070203;28;20033;-78
2021/12/17 12:10:00;;;;;;;7.50;4.80;;;19.40;91.70;;;;;;5061058;28;20023;-78
2021/12/17 12:12:30;;;;;;;6.03;4.53;;;20.10;91.20;;;;;;5061979;28;20049;-79
2021/12/17 12:15:16;;;;;;;5.95;4.15;;;19.90;90.80;;;;;;5060570;28;20037;-81
2021/12/17 12:17:58;;;;;;;5.65;4.00;;;19.50;91.00;;;;;;4965319;28;20234;-78
2021/12/17 12:20:48;;;;;;;5.72;3.95;;;19.70;90.70;;;;;;4977952;28;20228;-76
2021/12/17 12:23:31;;;;;;;8.80;3.92;;;20.50;90.30;;;;;;4980252;28;20043;-78
2021/12/17 12:26:03;;;;;;;5.90;4.20;;;21.00;89.90;;;;;;4991608;28;20038;-76
2021/12/17 12:28:47;;;;;;;7.70;4.38;;;20.20;89.80;;;;;;4995053;28;20038;-79
2021/12/17 12:31:16;;;;;;;5.30;3.58;;;20.80;90.00;;;;;;4940043;28;20051;-79
2021/12/17 12:34:04;;;;;;;5.95;4.47;;;21.10;90.20;;;;;;4954460;29;20042;-79
2021/12/17 12:36:47;;;;;;;5.15;3.65;;;20.90;88.70;;;;;;4959343;28;20314;-77
2021/12/17 12:39:35;;;;;;;5.85;4.40;;;21.00;88.10;;;;;;4960779;29;20035;-79
2021/12/17 12:42:17;;;;;;;6.57;4.70;;;20.30;88.80;;;;;;4960422;28;20023;-78
2021/12/17 12:44:43;;;;;;;6.40;4.55;;;20.00;89.20;;;;;;4961243;29;20078;-78
2021/12/17 12:47:09;;;;;;;6.55;5.13;;;19.80;90.40;;;;;;4960340;28;20039;-81
2021/12/17 12:49:45;;;;;;;6.85;4.65;;;19.30;90.70;;;;;;4960587;28;20031;-78
2021/12/17 12:52:20;;;;;;;7.82;5.38;;;18.70;90.70;;;;;;4963109;29;20230;-79
2021/12/17 12:55:10;;;;;;;6.82;4.70;;;17.40;92.60;;;;;;4965303;28;20063;-79
2021/12/17 12:57:41;;;;;;;6.85;5.20;;;17.00;92.80;;;;;;4955811;28;20054;-79
2021/12/17 13:00:22;;;;;;;6.75;4.38;;;16.90;93.30;;;;;;4962815;28;20371;-78
2021/12/17 13:02:51;;;;;;;5.72;4.20;;;16.30;93.90;;;;;;4963623;29;20251;-79
2021/12/17 13:05:18;;;;;;;6.55;4.63;;;16.10;94.90;;;;;;4944563;29;20042;-78
2021/12/17 13:07:47;;;;;;;6.97;4.55;;;16.00;94.40;;;;;;4944123;29;20314;-78
2021/12/17 13:10:35;;;;;;;6.97;5.05;;;15.90;94.60;;;;;;4944127;29;20042;-79
2021/12/17 13:13:31;;;;;;;8.55;5.25;;;15.40;95.50;;;;;;4945083;29;20119;-78
2021/12/17 13:26:39;;;;;;;8.18;5.75;;;13.40;99.50;;;;;;4943545;29;20055;-78
2021/12/17 13:29:21;;;;;;;8.73;5.93;;;13.70;99.40;;;;;;4942865;28;20195;-79
2021/12/17 13:31:53;;;;;;;11.70;5.72;;;13.00;99.90;;;;;;4943002;28;20036;-77
2021/12/17 13:34:19;;;;;;;8.45;6.05;;;12.70;99.90;;;;;;4946443;29;20035;-79
2021/12/17 13:36:57;;;;;;;10.93;6.20;;;12.60;99.90;;;;;;4999401;28;20299;-78
2021/12/17 13:39:26;;;;;;;9.65;5.82;;;13.10;99.90;;;;;;4961963;29;20047;-77
2021/12/17 13:41:52;;;;;;;9.55;5.50;;;13.30;99.90;;;;;;4961067;29;20294;-77
2021/12/17 13:44:27;;;;;;;7.95;5.32;;;12.80;99.90;;;;;;4963165;29;20075;-78
2021/12/17 13:47:13;;;;;;;8.77;5.70;;;12.70;99.90;;;;;;4952725;28;20110;-78
2021/12/17 13:49:41;;;;;;;9.00;5.60;;;12.80;99.90;;;;;;4956350;28;20309;-79
2021/12/17 13:52:07;;;;;;;9.00;5.90;;;12.60;99.90;;;;;;4962829;29;20067;-78
2021/12/17 13:54:33;;;;;;;7.75;5.22;;;12.80;99.90;;;;;;4962657;29;20027;-78
2021/12/17 13:57:01;;;;;;;8.32;5.50;;;13.00;99.90;;;;;;4962691;29;20073;-77
2021/12/17 13:59:29;;;;;;;8.00;5.70;;;13.20;99.90;;;;;;4962457;29;20134;-77
2021/12/17 14:01:54;;;;;;;8.35;5.82;;;13.20;99.90;;;;;;4961673;28;20071;-78
2021/12/17 14:04:21;;;;;;;9.55;5.28;;;13.60;99.90;;;;;;4957146;28;20042;-78
2021/12/17 14:06:51;;;;;;;9.00;6.47;;;14.00;99.90;;;;;;4994354;28;20022;-78
2021/12/17 14:09:18;;;;;;;8.07;5.78;;;13.40;99.90;;;;;;4963594;29;20043;-77
2021/12/17 14:11:44;;;;;;;8.95;5.53;;;13.00;99.90;;;;;;4962443;29;20115;-79
2021/12/17 14:14:27;;;;;;;10.50;6.43;;;12.40;99.90;;;;;;4961571;29;20119;-78
2021/12/17 14:17:02;;;;;;;9.15;6.10;;;11.80;99.90;;;;;;4954651;28;20211;-77
2021/12/17 14:20:00;;;;;;;8.48;5.70;;;11.40;99.90;;;;;;4950205;28;20035;-79
2021/12/17 14:22:31;;;;;;;11.48;5.88;;;11.10;99.90;;;;;;4957364;28;20350;-78
2021/12/17 14:24:58;;;;;;;10.32;6.20;;;11.00;99.90;;;;;;4962966;28;20305;-78
2021/12/17 14:27:42;;;;;;;9.70;6.20;;;10.70;99.90;;;;;;4961287;29;20109;-76
2021/12/17 14:30:09;;;;;;;9.45;6.05;;;10.60;99.90;;;;;;4945256;28;20203;-78
2021/12/17 14:32:41;;;;;;;9.43;6.47;;;10.30;99.90;;;;;;4962379;29;20015;-78
2021/12/17 14:35:07;;;;;;;10.48;6.90;;;10.00;99.90;;;;;;4961494;29;20035;-78
2021/12/17 14:37:50;;;;;;;11.07;7.07;;;9.80;99.90;;;;;;4961184;29;20047;-79
2021/12/17 14:40:29;;;;;;;14.23;7.85;;;9.60;99.90;;;;;;4977503;28;20027;-77
2021/12/17 14:42:57;;;;;;;12.70;7.90;;;9.50;99.90;;;;;;4961064;28;20069;-78
2021/12/17 14:45:40;;;;;;;11.85;7.57;;;9.30;99.90;;;;;;4962532;29;20072;-78
2021/12/17 14:48:19;;;;;;;10.80;7.57;;;9.20;99.90;;;;;;4962622;28;20076;-78
2021/12/17 15:02:10;;;;;;;12.93;8.52;;;8.50;99.90;;;;;;4961868;28;20066;-75
2021/12/17 15:04:36;;;;;;;13.68;8.98;;;8.50;99.90;;;;;;4973648;28;20036;-79
2021/12/17 15:07:02;;;;;;;12.05;8.55;;;8.40;99.90;;;;;;4943805;29;20039;-80
2021/12/17 15:09:32;;;;;;;13.65;9.20;;;8.30;99.90;;;;;;4943171;29;20043;-79
2021/12/17 15:12:00;;;;;;;12.98;9.18;;;8.30;99.90;;;;;;4943419;29;20058;-79
2021/12/17 15:14:26;;;;;;;12.77;8.82;;;8.10;99.90;;;;;;4983322;28;20053;-77
2021/12/17 15:16:53;;;;;;;14.98;9.25;;;8.10;99.90;;;;;;4993016;28;20097;-77
2021/12/17 15:19:19;;;;;;;12.88;8.65;;;8.00;99.90;;;;;;4987301;28;20031;-77
2021/12/17 15:21:45;;;;;;;13.73;8.93;;;8.00;99.90;;;;;;4961199;28;20232;-77
2021/12/17 15:24:11;;;;;;;15.32;9.70;;;7.90;99.90;;;;;;4977283;28;20063;-78
2021/12/17 15:26:38;;;;;;;13.32;9.57;;;7.90;99.90;;;;;;4942664;28;20038;-77
2021/12/17 15:29:04;;;;;;;13.48;9.18;;;7.90;99.90;;;;;;4954927;29;20051;-77
2021/12/17 15:31:30;;;;;;;14.20;9.55;;;7.90;99.90;;;;;;4950614;28;20044;-78
2021/12/17 15:33:55;;;;;;;13.45;9.10;;;7.90;99.90;;;;;;4966264;29;20038;-78
2021/12/17 15:36:21;;;;;;;14.00;9.88;;;7.90;99.90;;;;;;4972371;29;20106;-79
2021/12/17 15:38:47;;;;;;;15.02;9.30;;;7.80;99.90;;;;;;4961754;29;20031;-79
2021/12/17 15:41:13;;;;;;;14.00;9.05;;;7.80;99.90;;;;;;4962523;29;20035;-78
2021/12/17 15:43:38;;;;;;;12.90;9.02;;;7.80;99.90;;;;;;4961960;29;20111;-79
2021/12/17 15:46:04;;;;;;;13.55;9.68;;;7.70;99.90;;;;;;4957602;28;20047;-78
2021/12/17 15:48:31;;;;;;;13.25;9.65;;;7.70;99.90;;;;;;4957615;28;20042;-79
2021/12/17 15:50:57;;;;;;;14.23;9.55;;;7.70;99.90;;;;;;4961584;29;20120;-78
2021/12/17 15:53:22;;;;;;;15.23;9.60;;;7.70;99.90;;;;;;4948322;29;20107;-79
2021/12/17 15:55:48;;;;;;;20.80;10.88;;;7.60;99.90;;;;;;4970586;28;20044;-79
2021/12/17 15:58:14;;;;;;;16.17;9.80;;;7.60;99.90;;;;;;5022361;28;20219;-78
2021/12/17 16:00:40;;;;;;;14.30;9.57;;;7.60;99.90;;;;;;4987435;28;20257;-78
2021/12/17 16:03:08;;;;;;;13.20;9.18;;;7.50;99.90;;;;;;4944196;28;20047;-78
2021/12/17 16:05:35;;;;;;;14.05;9.70;;;7.40;99.90;;;;;;4982070;28;20151;-77
2021/12/17 16:08:01;;;;;;;16.50;9.80;;;7.30;99.90;;;;;;4941666;29;20099;-79
2021/12/17 16:21:43;;;;;;;13.93;9.95;;;7.30;99.90;;;;;;5002098;28;20045;-79
2021/12/17 16:24:09;;;;;;;12.93;9.02;;;7.20;99.90;;;;;;4950536;28;20067;-79
2021/12/17 16:26:35;;;;;;;14.98;10.00;;;7.10;99.90;;;;;;5061985;28;20136;-78
2021/12/17 16:29:01;;;;;;;15.48;9.93;;;7.10;99.90;;;;;;5044601;28;20025;-76
2021/12/17 16:31:29;;;;;;;14.65;9.90;;;7.10;99.90;;;;;;5027950;28;20065;-78
2021/12/17 16:34:01;;;;;;;15.65;10.18;;;7.00;99.90;;;;;;4976455;28;20106;-79
2021/12/17 16:36:28;;;;;;;15.40;10.93;;;7.00;99.90;;;;;;4959984;28;20209;-79
2021/12/17 16:38:56;;;;;;;16.55;10.35;;;6.90;99.90;;;;;;4960934;28;20035;-79